sensor_id;sensor_type;location;lat;lon;timestamp;P1;durP1;ratioP1;P2;durP2;ratioP2
22837;SDS011;11585;51.450;-0.240;2023-01-08T00:02:01;21.30;;;3.42;;
22837;SDS011;11585;51.450;-0.240;2023-01-08T00:07:54;15.38;;;2.83;;
22837;SDS011;11585;51.450;-0.240;2023-01-08T00:10:19;24.35;;;2.70;;
22837;SDS011;11585;51.450;-0.240;2023-01-08T00:12:45;28.17;;;3.67;;
22837;SDS011;11585;51.450;-0.240;2023-01-08T00:28:47;30.90;;;3.08;;
22837;SDS011;11585;51.450;-0.240;2023-01-08T00:31:15;18.33;;;3.13;;
22837;SDS011;11585;51.450;-0.240;2023-01-08T00:33:41;26.98;;;3.22;;
22837;SDS011;11585;51.450;-0.240;2023-01-08T00:59:44;14.05;;;2.88;;
22837;SDS011;11585;51.450;-0.240;2023-01-08T01:08:24;21.25;;;2.80;;
22837;SDS011;11585;51.450;-0.240;2023-01-08T01:14:12;18.95;;;2.63;;
22837;SDS011;11585;51.450;-0.240;2023-01-08T01:20:00;12.75;;;2.13;;
22837;SDS011;11585;51.450;-0.240;2023-01-08T01:22:26;17.60;;;2.95;;
22837;SDS011;11585;51.450;-0.240;2023-01-08T01:28:13;35.80;;;3.17;;
22837;SDS011;11585;51.450;-0.240;2023-01-08T01:34:02;27.73;;;3.05;;
22837;SDS011;11585;51.450;-0.240;2023-01-08T01:39:50;26.50;;;2.72;;
22837;SDS011;11585;51.450;-0.240;2023-01-08T01:42:17;37.72;;;3.58;;
22837;SDS011;11585;51.450;-0.240;2023-01-08T01:48:24;29.00;;;3.85;;
22837;SDS011;11585;51.450;-0.240;2023-01-08T01:54:12;21.48;;;3.13;;
22837;SDS011;11585;51.450;-0.240;2023-01-08T02:00:00;31.25;;;3.50;;
22837;SDS011;11585;51.450;-0.240;2023-01-08T02:02:28;37.53;;;3.00;;
22837;SDS011;11585;51.450;-0.240;2023-01-08T02:14:23;28.05;;;3.38;;
22837;SDS011;11585;51.450;-0.240;2023-01-08T02:17:01;31.08;;;3.03;;
22837;SDS011;11585;51.450;-0.240;2023-01-08T02:19:50;29.92;;;3.45;;
22837;SDS011;11585;51.450;-0.240;2023-01-08T02:22:33;22.35;;;3.03;;
22837;SDS011;11585;51.450;-0.240;2023-01-08T02:28:24;35.38;;;3.15;;
22837;SDS011;11585;51.450;-0.240;2023-01-08T02:30:51;14.05;;;2.72;;
22837;SDS011;11585;51.450;-0.240;2023-01-08T02:33:18;18.38;;;2.72;;
22837;SDS011;11585;51.450;-0.240;2023-01-08T02:44:33;27.38;;;2.70;;
22837;SDS011;11585;51.450;-0.240;2023-01-08T02:47:00;17.17;;;2.47;;
22837;SDS011;11585;51.450;-0.240;2023-01-08T02:49:29;12.63;;;2.05;;
22837;SDS011;11585;51.450;-0.240;2023-01-08T02:51:59;12.43;;;1.73;;
22837;SDS011;11585;51.450;-0.240;2023-01-08T02:57:52;12.07;;;1.70;;
22837;SDS011;11585;51.450;-0.240;2023-01-08T03:00:18;11.15;;;1.83;;
22837;SDS011;11585;51.450;-0.240;2023-01-08T03:02:45;13.25;;;1.65;;
22837;SDS011;11585;51.450;-0.240;2023-01-08T03:08:35;16.08;;;2.22;;
22837;SDS011;11585;51.450;-0.240;2023-01-08T03:14:36;16.10;;;2.60;;
22837;SDS011;11585;51.450;-0.240;2023-01-08T03:17:58;22.65;;;2.35;;
22837;SDS011;11585;51.450;-0.240;2023-01-08T03:20:20;17.75;;;2.78;;
22837;SDS011;11585;51.450;-0.240;2023-01-08T03:28:41;12.35;;;2.13;;
22837;SDS011;11585;51.450;-0.240;2023-01-08T03:31:12;13.77;;;2.30;;
22837;SDS011;11585;51.450;-0.240;2023-01-08T03:33:40;17.85;;;1.92;;
22837;SDS011;11585;51.450;-0.240;2023-01-08T03:39:31;16.95;;;2.17;;
22837;SDS011;11585;51.450;-0.240;2023-01-08T03:42:06;17.63;;;2.92;;
22837;SDS011;11585;51.450;-0.240;2023-01-08T03:47:57;22.25;;;2.67;;
22837;SDS011;11585;51.450;-0.240;2023-01-08T03:53:49;16.42;;;2.08;;
22837;SDS011;11585;51.450;-0.240;2023-01-08T03:59:39;28.05;;;3.33;;
22837;SDS011;11585;51.450;-0.240;2023-01-08T04:02:04;19.70;;;2.50;;
22837;SDS011;11585;51.450;-0.240;2023-01-08T04:04:30;19.40;;;2.50;;
22837;SDS011;11585;51.450;-0.240;2023-01-08T04:06:56;17.75;;;3.30;;
22837;SDS011;11585;51.450;-0.240;2023-01-08T04:09:21;24.73;;;2.63;;
22837;SDS011;11585;51.450;-0.240;2023-01-08T04:11:49;12.32;;;2.15;;
22837;SDS011;11585;51.450;-0.240;2023-01-08T04:14:15;22.92;;;2.22;;
22837;SDS011;11585;51.450;-0.240;2023-01-08T04:19:26;22.33;;;3.08;;
22837;SDS011;11585;51.450;-0.240;2023-01-08T04:21:52;16.73;;;1.95;;
22837;SDS011;11585;51.450;-0.240;2023-01-08T04:24:17;8.73;;;1.25;;
22837;SDS011;11585;51.450;-0.240;2023-01-08T04:29:13;9.10;;;1.17;;
22837;SDS011;11585;51.450;-0.240;2023-01-08T04:31:39;4.97;;;1.10;;
22837;SDS011;11585;51.450;-0.240;2023-01-08T04:34:05;7.60;;;1.48;;
22837;SDS011;11585;51.450;-0.240;2023-01-08T04:36:30;7.05;;;1.30;;
22837;SDS011;11585;51.450;-0.240;2023-01-08T04:38:56;6.88;;;1.10;;
22837;SDS011;11585;51.450;-0.240;2023-01-08T04:41:22;4.60;;;1.17;;
22837;SDS011;11585;51.450;-0.240;2023-01-08T04:43:47;10.27;;;1.30;;
22837;SDS011;11585;51.450;-0.240;2023-01-08T04:46:13;7.40;;;1.30;;
22837;SDS011;11585;51.450;-0.240;2023-01-08T04:48:39;8.23;;;1.27;;
22837;SDS011;11585;51.450;-0.240;2023-01-08T04:51:04;7.60;;;1.77;;
22837;SDS011;11585;51.450;-0.240;2023-01-08T04:53:32;9.48;;;1.30;;
22837;SDS011;11585;51.450;-0.240;2023-01-08T04:56:04;8.75;;;1.27;;
22837;SDS011;11585;51.450;-0.240;2023-01-08T04:58:33;5.85;;;1.00;;
22837;SDS011;11585;51.450;-0.240;2023-01-08T05:01:00;7.15;;;1.02;;
22837;SDS011;11585;51.450;-0.240;2023-01-08T05:03:32;12.75;;;1.55;;
22837;SDS011;11585;51.450;-0.240;2023-01-08T05:09:20;6.85;;;1.17;;
22837;SDS011;11585;51.450;-0.240;2023-01-08T05:11:46;10.00;;;1.23;;
22837;SDS011;11585;51.450;-0.240;2023-01-08T05:14:12;7.45;;;1.17;;
22837;SDS011;11585;51.450;-0.240;2023-01-08T05:16:37;8.32;;;1.30;;
22837;SDS011;11585;51.450;-0.240;2023-01-08T05:19:03;3.53;;;0.73;;
22837;SDS011;11585;51.450;-0.240;2023-01-08T05:21:29;7.97;;;1.35;;
22837;SDS011;11585;51.450;-0.240;2023-01-08T05:23:54;7.38;;;1.30;;
22837;SDS011;11585;51.450;-0.240;2023-01-08T05:26:21;6.18;;;0.98;;
22837;SDS011;11585;51.450;-0.240;2023-01-08T05:28:46;9.07;;;1.10;;
22837;SDS011;11585;51.450;-0.240;2023-01-08T05:31:12;9.18;;;1.20;;
22837;SDS011;11585;51.450;-0.240;2023-01-08T05:33:38;4.60;;;1.08;;
22837;SDS011;11585;51.450;-0.240;2023-01-08T05:36:08;2.42;;;1.23;;
22837;SDS011;11585;51.450;-0.240;2023-01-08T05:38:34;3.60;;;0.70;;
22837;SDS011;11585;51.450;-0.240;2023-01-08T05:41:00;4.70;;;0.73;;
22837;SDS011;11585;51.450;-0.240;2023-01-08T05:43:26;5.38;;;0.90;;
22837;SDS011;11585;51.450;-0.240;2023-01-08T05:45:52;6.20;;;1.10;;
22837;SDS011;11585;51.450;-0.240;2023-01-08T05:48:17;2.47;;;0.80;;
22837;SDS011;11585;51.450;-0.240;2023-01-08T05:50:43;5.40;;;0.80;;
22837;SDS011;11585;51.450;-0.240;2023-01-08T05:53:08;3.60;;;0.85;;
22837;SDS011;11585;51.450;-0.240;2023-01-08T05:55:35;6.60;;;1.13;;
22837;SDS011;11585;51.450;-0.240;2023-01-08T05:58:02;6.40;;;1.10;;
22837;SDS011;11585;51.450;-0.240;2023-01-08T06:00:29;9.00;;;1.20;;
22837;SDS011;11585;51.450;-0.240;2023-01-08T06:02:55;4.68;;;0.85;;
22837;SDS011;11585;51.450;-0.240;2023-01-08T06:08:08;4.85;;;0.90;;
22837;SDS011;11585;51.450;-0.240;2023-01-08T06:10:36;3.47;;;0.80;;
22837;SDS011;11585;51.450;-0.240;2023-01-08T06:13:05;4.25;;;0.85;;
22837;SDS011;11585;51.450;-0.240;2023-01-08T06:15:32;3.17;;;0.65;;
22837;SDS011;11585;51.450;-0.240;2023-01-08T06:18:01;3.00;;;0.82;;
22837;SDS011;11585;51.450;-0.240;2023-01-08T06:20:28;4.60;;;0.68;;
22837;SDS011;11585;51.450;-0.240;2023-01-08T06:22:56;3.13;;;1.00;;
22837;SDS011;11585;51.450;-0.240;2023-01-08T06:25:24;4.13;;;0.60;;
22837;SDS011;11585;51.450;-0.240;2023-01-08T06:27:53;3.90;;;0.80;;
22837;SDS011;11585;51.450;-0.240;2023-01-08T06:30:18;3.67;;;0.85;;
22837;SDS011;11585;51.450;-0.240;2023-01-08T06:32:44;2.83;;;0.60;;
22837;SDS011;11585;51.450;-0.240;2023-01-08T06:35:10;7.03;;;0.85;;
22837;SDS011;11585;51.450;-0.240;2023-01-08T06:37:35;1.88;;;1.10;;
22837;SDS011;11585;51.450;-0.240;2023-01-08T06:40:01;10.70;;;0.90;;
22837;SDS011;11585;51.450;-0.240;2023-01-08T06:42:32;9.77;;;0.90;;
22837;SDS011;11585;51.450;-0.240;2023-01-08T06:44:59;5.13;;;0.85;;
22837;SDS011;11585;51.450;-0.240;2023-01-08T06:47:25;5.65;;;0.93;;
22837;SDS011;11585;51.450;-0.240;2023-01-08T06:49:53;8.43;;;1.20;;
22837;SDS011;11585;51.450;-0.240;2023-01-08T06:52:18;5.55;;;1.20;;
22837;SDS011;11585;51.450;-0.240;2023-01-08T06:54:44;5.13;;;1.02;;
22837;SDS011;11585;51.450;-0.240;2023-01-08T06:57:10;4.93;;;1.33;;
22837;SDS011;11585;51.450;-0.240;2023-01-08T06:59:35;10.88;;;1.27;;
22837;SDS011;11585;51.450;-0.240;2023-01-08T07:02:01;4.75;;;0.90;;
22837;SDS011;11585;51.450;-0.240;2023-01-08T07:07:52;9.70;;;1.23;;
22837;SDS011;11585;51.450;-0.240;2023-01-08T07:10:19;6.85;;;0.95;;
22837;SDS011;11585;51.450;-0.240;2023-01-08T07:12:45;7.22;;;0.93;;
22837;SDS011;11585;51.450;-0.240;2023-01-08T07:15:14;6.18;;;1.42;;
22837;SDS011;11585;51.450;-0.240;2023-01-08T07:17:39;10.40;;;1.38;;
22837;SDS011;11585;51.450;-0.240;2023-01-08T07:20:05;7.55;;;1.05;;
22837;SDS011;11585;51.450;-0.240;2023-01-08T07:22:31;8.02;;;1.42;;
22837;SDS011;11585;51.450;-0.240;2023-01-08T07:27:48;5.55;;;1.13;;
22837;SDS011;11585;51.450;-0.240;2023-01-08T07:30:14;7.43;;;1.25;;
22837;SDS011;11585;51.450;-0.240;2023-01-08T07:32:39;7.55;;;1.55;;
22837;SDS011;11585;51.450;-0.240;2023-01-08T07:35:05;12.90;;;1.48;;
22837;SDS011;11585;51.450;-0.240;2023-01-08T07:37:31;14.02;;;1.58;;
22837;SDS011;11585;51.450;-0.240;2023-01-08T07:39:57;10.40;;;1.60;;
22837;SDS011;11585;51.450;-0.240;2023-01-08T07:42:22;7.30;;;1.42;;
22837;SDS011;11585;51.450;-0.240;2023-01-08T07:44:49;10.55;;;1.33;;
22837;SDS011;11585;51.450;-0.240;2023-01-08T07:47:15;14.93;;;1.40;;
22837;SDS011;11585;51.450;-0.240;2023-01-08T07:49:40;10.00;;;1.25;;
22837;SDS011;11585;51.450;-0.240;2023-01-08T07:52:06;6.72;;;1.27;;
22837;SDS011;11585;51.450;-0.240;2023-01-08T07:54:32;8.40;;;1.10;;
22837;SDS011;11585;51.450;-0.240;2023-01-08T07:56:57;8.88;;;1.13;;
22837;SDS011;11585;51.450;-0.240;2023-01-08T07:59:23;13.50;;;1.63;;
22837;SDS011;11585;51.450;-0.240;2023-01-08T08:01:51;10.77;;;1.20;;
22837;SDS011;11585;51.450;-0.240;2023-01-08T08:04:16;13.40;;;1.17;;
22837;SDS011;11585;51.450;-0.240;2023-01-08T08:06:44;10.00;;;1.30;;
22837;SDS011;11585;51.450;-0.240;2023-01-08T08:09:09;11.57;;;1.17;;
22837;SDS011;11585;51.450;-0.240;2023-01-08T08:11:35;8.98;;;1.33;;
22837;SDS011;11585;51.450;-0.240;2023-01-08T08:14:02;7.47;;;1.33;;
22837;SDS011;11585;51.450;-0.240;2023-01-08T08:16:30;11.18;;;1.50;;
22837;SDS011;11585;51.450;-0.240;2023-01-08T08:18:57;12.38;;;1.30;;
22837;SDS011;11585;51.450;-0.240;2023-01-08T08:21:23;8.65;;;1.17;;
22837;SDS011;11585;51.450;-0.240;2023-01-08T08:23:49;11.80;;;0.98;;
22837;SDS011;11585;51.450;-0.240;2023-01-08T08:26:16;5.78;;;1.40;;
22837;SDS011;11585;51.450;-0.240;2023-01-08T08:28:42;13.00;;;1.70;;
22837;SDS011;11585;51.450;-0.240;2023-01-08T08:31:07;6.90;;;1.70;;
22837;SDS011;11585;51.450;-0.240;2023-01-08T08:33:33;8.98;;;1.27;;
22837;SDS011;11585;51.450;-0.240;2023-01-08T08:36:01;7.55;;;1.55;;
22837;SDS011;11585;51.450;-0.240;2023-01-08T08:38:26;12.30;;;1.77;;
22837;SDS011;11585;51.450;-0.240;2023-01-08T08:40:52;15.85;;;1.50;;
22837;SDS011;11585;51.450;-0.240;2023-01-08T08:43:18;8.95;;;1.60;;
22837;SDS011;11585;51.450;-0.240;2023-01-08T08:45:43;13.45;;;1.80;;
22837;SDS011;11585;51.450;-0.240;2023-01-08T08:48:09;10.32;;;1.60;;
22837;SDS011;11585;51.450;-0.240;2023-01-08T08:50:35;16.60;;;2.08;;
22837;SDS011;11585;51.450;-0.240;2023-01-08T08:53:02;20.23;;;1.70;;
22837;SDS011;11585;51.450;-0.240;2023-01-08T08:55:31;11.50;;;2.00;;
22837;SDS011;11585;51.450;-0.240;2023-01-08T08:58:01;9.48;;;1.85;;
22837;SDS011;11585;51.450;-0.240;2023-01-08T09:00:28;10.50;;;1.95;;
22837;SDS011;11585;51.450;-0.240;2023-01-08T09:02:54;20.83;;;1.90;;
22837;SDS011;11585;51.450;-0.240;2023-01-08T09:08:09;14.85;;;2.08;;
22837;SDS011;11585;51.450;-0.240;2023-01-08T09:10:36;15.23;;;1.88;;
22837;SDS011;11585;51.450;-0.240;2023-01-08T09:23:28;18.88;;;1.55;;
22837;SDS011;11585;51.450;-0.240;2023-01-08T09:25:59;18.35;;;2.72;;
22837;SDS011;11585;51.450;-0.240;2023-01-08T09:31:52;16.40;;;2.05;;
22837;SDS011;11585;51.450;-0.240;2023-01-08T09:34:17;19.83;;;2.08;;
22837;SDS011;11585;51.450;-0.240;2023-01-08T09:36:44;16.50;;;1.83;;
22837;SDS011;11585;51.450;-0.240;2023-01-08T09:39:10;19.13;;;1.77;;
22837;SDS011;11585;51.450;-0.240;2023-01-08T09:41:40;12.82;;;2.38;;
22837;SDS011;11585;51.450;-0.240;2023-01-08T09:44:15;9.70;;;1.30;;
22837;SDS011;11585;51.450;-0.240;2023-01-08T09:46:48;17.30;;;3.17;;
22837;SDS011;11585;51.450;-0.240;2023-01-08T09:49:25;18.70;;;2.10;;
22837;SDS011;11585;51.450;-0.240;2023-01-08T09:51:58;19.88;;;2.50;;
22837;SDS011;11585;51.450;-0.240;2023-01-08T09:54:24;21.55;;;2.08;;
22837;SDS011;11585;51.450;-0.240;2023-01-08T09:56:51;20.50;;;3.00;;
22837;SDS011;11585;51.450;-0.240;2023-01-08T09:59:17;24.00;;;2.83;;
22837;SDS011;11585;51.450;-0.240;2023-01-08T10:02:01;20.48;;;2.55;;
22837;SDS011;11585;51.450;-0.240;2023-01-08T10:04:28;16.63;;;2.22;;
22837;SDS011;11585;51.450;-0.240;2023-01-08T10:07:18;19.55;;;3.25;;
22837;SDS011;11585;51.450;-0.240;2023-01-08T10:09:49;21.55;;;2.88;;
22837;SDS011;11585;51.450;-0.240;2023-01-08T10:12:26;15.98;;;2.03;;
22837;SDS011;11585;51.450;-0.240;2023-01-08T10:14:59;18.38;;;2.47;;
22837;SDS011;11585;51.450;-0.240;2023-01-08T10:17:29;26.85;;;2.17;;
22837;SDS011;11585;51.450;-0.240;2023-01-08T10:30:04;16.75;;;2.40;;
22837;SDS011;11585;51.450;-0.240;2023-01-08T10:32:51;27.17;;;2.75;;
22837;SDS011;11585;51.450;-0.240;2023-01-08T10:35:21;29.20;;;2.28;;
22837;SDS011;11585;51.450;-0.240;2023-01-08T10:38:02;27.83;;;3.30;;
22837;SDS011;11585;51.450;-0.240;2023-01-08T10:43:07;20.63;;;2.45;;
22837;SDS011;11585;51.450;-0.240;2023-01-08T11:00:32;32.20;;;3.05;;
22837;SDS011;11585;51.450;-0.240;2023-01-08T11:03:00;19.98;;;2.72;;
22837;SDS011;11585;51.450;-0.240;2023-01-08T11:05:33;20.13;;;2.40;;
22837;SDS011;11585;51.450;-0.240;2023-01-08T11:08:02;13.60;;;2.40;;
22837;SDS011;11585;51.450;-0.240;2023-01-08T11:10:33;22.25;;;2.75;;
22837;SDS011;11585;51.450;-0.240;2023-01-08T11:13:01;33.47;;;3.17;;
22837;SDS011;11585;51.450;-0.240;2023-01-08T11:15:31;19.58;;;3.08;;
22837;SDS011;11585;51.450;-0.240;2023-01-08T11:38:52;15.75;;;2.40;;
22837;SDS011;11585;51.450;-0.240;2023-01-08T11:41:25;18.00;;;2.95;;
22837;SDS011;11585;51.450;-0.240;2023-01-08T12:02:46;14.88;;;2.60;;
22837;SDS011;11585;51.450;-0.240;2023-01-08T12:05:21;16.40;;;2.38;;
22837;SDS011;11585;51.450;-0.240;2023-01-08T12:11:09;28.13;;;2.78;;
22837;SDS011;11585;51.450;-0.240;2023-01-08T12:25:08;4.70;;;1.20;;
22837;SDS011;11585;51.450;-0.240;2023-01-08T12:31:07;11.40;;;1.88;;
22837;SDS011;11585;51.450;-0.240;2023-01-08T12:33:50;5.53;;;0.80;;
22837;SDS011;11585;51.450;-0.240;2023-01-08T12:36:24;5.95;;;1.73;;
22837;SDS011;11585;51.450;-0.240;2023-01-08T12:39:02;4.03;;;1.50;;
22837;SDS011;11585;51.450;-0.240;2023-01-08T12:41:33;9.88;;;1.20;;
22837;SDS011;11585;51.450;-0.240;2023-01-08T12:44:04;4.78;;;1.35;;
22837;SDS011;11585;51.450;-0.240;2023-01-08T12:46:35;3.17;;;1.17;;
22837;SDS011;11585;51.450;-0.240;2023-01-08T12:57:11;5.78;;;1.13;;
22837;SDS011;11585;51.450;-0.240;2023-01-08T13:02:34;7.20;;;1.40;;
22837;SDS011;11585;51.450;-0.240;2023-01-08T13:07:43;6.78;;;1.75;;
22837;SDS011;11585;51.450;-0.240;2023-01-08T13:10:30;9.43;;;1.67;;
22837;SDS011;11585;51.450;-0.240;2023-01-08T13:13:05;20.23;;;2.40;;
22837;SDS011;11585;51.450;-0.240;2023-01-08T13:15:34;19.13;;;2.30;;
22837;SDS011;11585;51.450;-0.240;2023-01-08T13:18:04;21.92;;;2.60;;
22837;SDS011;11585;51.450;-0.240;2023-01-08T13:20:55;15.25;;;2.40;;
22837;SDS011;11585;51.450;-0.240;2023-01-08T13:23:33;22.65;;;2.92;;
22837;SDS011;11585;51.450;-0.240;2023-01-08T13:26:01;13.95;;;2.72;;
22837;SDS011;11585;51.450;-0.240;2023-01-08T13:31:05;12.50;;;2.08;;
22837;SDS011;11585;51.450;-0.240;2023-01-08T13:39:04;11.82;;;1.90;;
22837;SDS011;11585;51.450;-0.240;2023-01-08T13:41:40;8.20;;;2.28;;
22837;SDS011;11585;51.450;-0.240;2023-01-08T13:44:16;10.50;;;2.03;;
22837;SDS011;11585;51.450;-0.240;2023-01-08T13:47:14;8.23;;;1.40;;
22837;SDS011;11585;51.450;-0.240;2023-01-08T13:50:15;5.60;;;1.55;;
22837;SDS011;11585;51.450;-0.240;2023-01-08T13:52:45;10.10;;;1.40;;
22837;SDS011;11585;51.450;-0.240;2023-01-08T13:58:00;20.17;;;1.92;;
22837;SDS011;11585;51.450;-0.240;2023-01-08T14:00:30;10.13;;;1.40;;
22837;SDS011;11585;51.450;-0.240;2023-01-08T14:08:49;15.57;;;3.22;;
22837;SDS011;11585;51.450;-0.240;2023-01-08T14:11:15;11.82;;;1.85;;
22837;SDS011;11585;51.450;-0.240;2023-01-08T14:13:41;11.50;;;2.67;;
22837;SDS011;11585;51.450;-0.240;2023-01-08T14:16:10;16.70;;;3.03;;
22837;SDS011;11585;51.450;-0.240;2023-01-08T14:18:41;14.85;;;2.22;;
22837;SDS011;11585;51.450;-0.240;2023-01-08T14:21:08;32.80;;;5.10;;
22837;SDS011;11585;51.450;-0.240;2023-01-08T14:23:38;15.52;;;2.25;;
22837;SDS011;11585;51.450;-0.240;2023-01-08T14:26:28;9.10;;;2.50;;
22837;SDS011;11585;51.450;-0.240;2023-01-08T14:28:55;7.18;;;1.52;;
22837;SDS011;11585;51.450;-0.240;2023-01-08T14:31:22;8.02;;;1.65;;
22837;SDS011;11585;51.450;-0.240;2023-01-08T14:33:51;9.98;;;2.22;;
22837;SDS011;11585;51.450;-0.240;2023-01-08T14:36:19;5.95;;;1.27;;
22837;SDS011;11585;51.450;-0.240;2023-01-08T14:38:45;8.15;;;1.20;;
22837;SDS011;11585;51.450;-0.240;2023-01-08T14:41:14;14.73;;;2.20;;
22837;SDS011;11585;51.450;-0.240;2023-01-08T14:43:49;9.32;;;1.67;;
22837;SDS011;11585;51.450;-0.240;2023-01-08T14:46:25;9.45;;;2.63;;
22837;SDS011;11585;51.450;-0.240;2023-01-08T14:48:53;12.07;;;3.38;;
22837;SDS011;11585;51.450;-0.240;2023-01-08T14:51:20;11.45;;;1.95;;
22837;SDS011;11585;51.450;-0.240;2023-01-08T14:54:01;11.10;;;2.40;;
22837;SDS011;11585;51.450;-0.240;2023-01-08T14:56:31;7.97;;;1.40;;
22837;SDS011;11585;51.450;-0.240;2023-01-08T14:58:59;5.22;;;1.48;;
22837;SDS011;11585;51.450;-0.240;2023-01-08T15:01:30;3.17;;;1.35;;
22837;SDS011;11585;51.450;-0.240;2023-01-08T15:04:05;7.55;;;1.40;;
22837;SDS011;11585;51.450;-0.240;2023-01-08T15:06:34;5.00;;;1.88;;
22837;SDS011;11585;51.450;-0.240;2023-01-08T15:09:00;5.90;;;1.60;;
22837;SDS011;11585;51.450;-0.240;2023-01-08T15:11:31;11.63;;;1.88;;
22837;SDS011;11585;51.450;-0.240;2023-01-08T15:14:13;5.45;;;1.50;;
22837;SDS011;11585;51.450;-0.240;2023-01-08T15:16:39;9.40;;;1.38;;
22837;SDS011;11585;51.450;-0.240;2023-01-08T15:19:16;7.22;;;1.48;;
22837;SDS011;11585;51.450;-0.240;2023-01-08T15:21:44;6.53;;;1.48;;
22837;SDS011;11585;51.450;-0.240;2023-01-08T15:24:24;6.32;;;1.52;;
22837;SDS011;11585;51.450;-0.240;2023-01-08T15:26:51;4.40;;;1.00;;
22837;SDS011;11585;51.450;-0.240;2023-01-08T15:29:18;7.80;;;1.80;;
22837;SDS011;11585;51.450;-0.240;2023-01-08T15:31:50;3.83;;;2.13;;
22837;SDS011;11585;51.450;-0.240;2023-01-08T15:34:19;7.75;;;2.00;;
22837;SDS011;11585;51.450;-0.240;2023-01-08T15:39:12;6.18;;;1.45;;
22837;SDS011;11585;51.450;-0.240;2023-01-08T15:41:38;2.58;;;0.82;;
22837;SDS011;11585;51.450;-0.240;2023-01-08T15:44:23;7.13;;;1.80;;
22837;SDS011;11585;51.450;-0.240;2023-01-08T15:46:50;4.80;;;0.90;;
22837;SDS011;11585;51.450;-0.240;2023-01-08T15:49:16;7.53;;;1.52;;
22837;SDS011;11585;51.450;-0.240;2023-01-08T15:51:46;3.67;;;1.58;;
22837;SDS011;11585;51.450;-0.240;2023-01-08T15:54:14;4.35;;;1.25;;
22837;SDS011;11585;51.450;-0.240;2023-01-08T15:56:40;6.53;;;1.48;;
22837;SDS011;11585;51.450;-0.240;2023-01-08T15:59:06;3.28;;;1.00;;
22837;SDS011;11585;51.450;-0.240;2023-01-08T16:01:31;3.38;;;1.45;;
22837;SDS011;11585;51.450;-0.240;2023-01-08T16:03:58;4.43;;;1.40;;
22837;SDS011;11585;51.450;-0.240;2023-01-08T16:06:24;9.25;;;1.63;;
22837;SDS011;11585;51.450;-0.240;2023-01-08T16:08:50;6.45;;;1.48;;
22837;SDS011;11585;51.450;-0.240;2023-01-08T16:11:16;9.25;;;1.13;;
22837;SDS011;11585;51.450;-0.240;2023-01-08T16:13:42;4.35;;;1.20;;
22837;SDS011;11585;51.450;-0.240;2023-01-08T16:16:08;5.55;;;1.17;;
22837;SDS011;11585;51.450;-0.240;2023-01-08T16:18:36;5.15;;;1.38;;
22837;SDS011;11585;51.450;-0.240;2023-01-08T16:21:02;13.82;;;3.25;;
22837;SDS011;11585;51.450;-0.240;2023-01-08T16:23:28;7.10;;;1.55;;
22837;SDS011;11585;51.450;-0.240;2023-01-08T16:25:54;3.95;;;1.85;;
22837;SDS011;11585;51.450;-0.240;2023-01-08T16:28:20;13.50;;;3.90;;
22837;SDS011;11585;51.450;-0.240;2023-01-08T16:30:46;5.82;;;1.85;;
22837;SDS011;11585;51.450;-0.240;2023-01-08T16:33:11;7.78;;;1.73;;
22837;SDS011;11585;51.450;-0.240;2023-01-08T16:35:37;8.32;;;3.72;;
22837;SDS011;11585;51.450;-0.240;2023-01-08T16:38:02;3.40;;;1.70;;
22837;SDS011;11585;51.450;-0.240;2023-01-08T16:40:28;11.48;;;1.65;;
22837;SDS011;11585;51.450;-0.240;2023-01-08T16:42:55;4.25;;;1.20;;
22837;SDS011;11585;51.450;-0.240;2023-01-08T16:45:25;2.80;;;1.15;;
22837;SDS011;11585;51.450;-0.240;2023-01-08T16:47:51;5.90;;;1.83;;
22837;SDS011;11585;51.450;-0.240;2023-01-08T16:50:17;6.40;;;1.52;;
22837;SDS011;11585;51.450;-0.240;2023-01-08T16:52:42;7.28;;;1.85;;
22837;SDS011;11585;51.450;-0.240;2023-01-08T16:55:10;9.35;;;2.78;;
22837;SDS011;11585;51.450;-0.240;2023-01-08T16:57:36;7.95;;;1.60;;
22837;SDS011;11585;51.450;-0.240;2023-01-08T17:00:03;6.40;;;2.05;;
22837;SDS011;11585;51.450;-0.240;2023-01-08T17:02:29;9.40;;;1.98;;
22837;SDS011;11585;51.450;-0.240;2023-01-08T17:04:54;9.70;;;1.70;;
22837;SDS011;11585;51.450;-0.240;2023-01-08T17:07:20;8.38;;;1.73;;
22837;SDS011;11585;51.450;-0.240;2023-01-08T17:09:46;6.25;;;1.60;;
22837;SDS011;11585;51.450;-0.240;2023-01-08T17:12:11;3.60;;;1.17;;
22837;SDS011;11585;51.450;-0.240;2023-01-08T17:14:46;18.60;;;4.47;;
22837;SDS011;11585;51.450;-0.240;2023-01-08T17:17:13;8.90;;;2.45;;
22837;SDS011;11585;51.450;-0.240;2023-01-08T17:19:38;5.30;;;1.60;;
22837;SDS011;11585;51.450;-0.240;2023-01-08T17:22:04;6.65;;;1.58;;
22837;SDS011;11585;51.450;-0.240;2023-01-08T17:24:30;2.88;;;1.25;;
22837;SDS011;11585;51.450;-0.240;2023-01-08T17:26:56;4.20;;;0.90;;
22837;SDS011;11585;51.450;-0.240;2023-01-08T17:29:22;2.30;;;1.00;;
22837;SDS011;11585;51.450;-0.240;2023-01-08T17:31:47;2.08;;;0.90;;
22837;SDS011;11585;51.450;-0.240;2023-01-08T17:34:13;4.45;;;1.00;;
22837;SDS011;11585;51.450;-0.240;2023-01-08T17:39:23;3.25;;;1.10;;
22837;SDS011;11585;51.450;-0.240;2023-01-08T17:41:49;3.45;;;1.50;;
22837;SDS011;11585;51.450;-0.240;2023-01-08T17:44:33;2.65;;;0.90;;
22837;SDS011;11585;51.450;-0.240;2023-01-08T17:46:58;1.83;;;0.93;;
22837;SDS011;11585;51.450;-0.240;2023-01-08T17:49:24;2.33;;;1.10;;
22837;SDS011;11585;51.450;-0.240;2023-01-08T17:52:16;1.08;;;0.88;;
22837;SDS011;11585;51.450;-0.240;2023-01-08T17:54:42;3.83;;;1.10;;
22837;SDS011;11585;51.450;-0.240;2023-01-08T17:57:10;1.92;;;1.13;;
22837;SDS011;11585;51.450;-0.240;2023-01-08T17:59:36;2.17;;;0.88;;
22837;SDS011;11585;51.450;-0.240;2023-01-08T18:02:02;3.42;;;1.00;;
22837;SDS011;11585;51.450;-0.240;2023-01-08T18:04:27;4.53;;;1.40;;
22837;SDS011;11585;51.450;-0.240;2023-01-08T18:06:53;2.50;;;1.25;;
22837;SDS011;11585;51.450;-0.240;2023-01-08T18:09:19;3.70;;;0.90;;
22837;SDS011;11585;51.450;-0.240;2023-01-08T18:11:45;3.22;;;1.27;;
22837;SDS011;11585;51.450;-0.240;2023-01-08T18:14:11;4.70;;;1.80;;
22837;SDS011;11585;51.450;-0.240;2023-01-08T18:16:37;4.72;;;1.60;;
22837;SDS011;11585;51.450;-0.240;2023-01-08T18:19:03;8.73;;;1.40;;
22837;SDS011;11585;51.450;-0.240;2023-01-08T18:21:29;5.55;;;1.40;;
22837;SDS011;11585;51.450;-0.240;2023-01-08T18:23:54;4.22;;;1.45;;
22837;SDS011;11585;51.450;-0.240;2023-01-08T18:26:20;6.18;;;1.45;;
22837;SDS011;11585;51.450;-0.240;2023-01-08T18:28:46;4.63;;;1.67;;
22837;SDS011;11585;51.450;-0.240;2023-01-08T18:31:30;9.60;;;1.20;;
22837;SDS011;11585;51.450;-0.240;2023-01-08T18:33:59;5.22;;;1.90;;
22837;SDS011;11585;51.450;-0.240;2023-01-08T18:36:24;4.22;;;1.63;;
22837;SDS011;11585;51.450;-0.240;2023-01-08T18:39:11;6.28;;;2.20;;
22837;SDS011;11585;51.450;-0.240;2023-01-08T18:41:38;10.55;;;2.80;;
22837;SDS011;11585;51.450;-0.240;2023-01-08T18:44:22;6.60;;;2.40;;
22837;SDS011;11585;51.450;-0.240;2023-01-08T18:49:32;5.88;;;2.33;;
22837;SDS011;11585;51.450;-0.240;2023-01-08T18:51:58;7.35;;;2.88;;
22837;SDS011;11585;51.450;-0.240;2023-01-08T18:54:23;4.85;;;1.80;;
22837;SDS011;11585;51.450;-0.240;2023-01-08T18:56:49;11.68;;;1.90;;
22837;SDS011;11585;51.450;-0.240;2023-01-08T18:59:15;13.55;;;2.20;;
22837;SDS011;11585;51.450;-0.240;2023-01-08T19:01:41;11.98;;;2.42;;
22837;SDS011;11585;51.450;-0.240;2023-01-08T19:04:06;5.85;;;2.15;;
22837;SDS011;11585;51.450;-0.240;2023-01-08T19:06:38;15.07;;;2.58;;
22837;SDS011;11585;51.450;-0.240;2023-01-08T19:09:03;8.13;;;2.13;;
22837;SDS011;11585;51.450;-0.240;2023-01-08T19:11:29;5.43;;;2.33;;
22837;SDS011;11585;51.450;-0.240;2023-01-08T19:13:55;5.97;;;2.40;;
22837;SDS011;11585;51.450;-0.240;2023-01-08T19:16:22;8.18;;;2.30;;
22837;SDS011;11585;51.450;-0.240;2023-01-08T19:18:48;11.75;;;2.50;;
22837;SDS011;11585;51.450;-0.240;2023-01-08T19:21:14;11.82;;;2.75;;